createdAt,value
2023-01-19T00:00:30.308Z,6.90
2023-01-19T00:02:56.898Z,6.23
2023-01-19T00:05:23.406Z,6.47
2023-01-19T00:07:49.892Z,6.53
2023-01-19T00:10:16.736Z,6.63
2023-01-19T00:12:43.324Z,5.63
2023-01-19T00:15:10.906Z,6.73
2023-01-19T00:17:37.452Z,5.80
2023-01-19T00:20:04.247Z,5.77
2023-01-19T00:22:30.736Z,7.00
2023-01-19T00:24:57.341Z,6.10
2023-01-19T00:27:24.569Z,6.03
2023-01-19T00:29:51.072Z,6.40
2023-01-19T00:32:19.740Z,7.00
2023-01-19T00:34:49.511Z,6.70
2023-01-19T00:37:17.270Z,6.83
2023-01-19T00:39:43.797Z,6.43
2023-01-19T00:42:32.651Z,6.67
2023-01-19T00:44:59.153Z,6.10
2023-01-19T00:47:25.848Z,7.40
2023-01-19T00:49:52.708Z,6.70
2023-01-19T00:52:19.603Z,6.00
2023-01-19T00:54:46.346Z,6.30
2023-01-19T00:57:13.153Z,6.53
2023-01-19T00:59:39.644Z,7.50
2023-01-19T01:02:06.423Z,5.97
2023-01-19T01:04:34.069Z,5.80
2023-01-19T01:07:00.621Z,6.80
2023-01-19T01:09:27.834Z,5.90
2023-01-19T01:11:54.572Z,6.30
2023-01-19T01:14:21.109Z,6.10
2023-01-19T01:16:48.626Z,6.83
2023-01-19T01:19:16.098Z,7.00
2023-01-19T01:21:42.621Z,4.43
2023-01-19T01:24:09.594Z,7.27
2023-01-19T01:26:36.133Z,5.40
2023-01-19T01:29:02.680Z,6.27
2023-01-19T01:31:29.810Z,5.80
2023-01-19T01:33:57.085Z,6.70
2023-01-19T01:36:23.934Z,6.70
2023-01-19T01:38:50.928Z,5.97
2023-01-19T01:41:17.439Z,6.70
2023-01-19T01:43:45.424Z,6.53
2023-01-19T01:46:15.884Z,6.43
2023-01-19T01:48:48.477Z,5.43
2023-01-19T01:51:24.649Z,5.80
2023-01-19T01:54:07.009Z,5.67
2023-01-19T01:56:46.409Z,7.43
2023-01-19T01:59:25.733Z,6.37
2023-01-19T02:02:22.950Z,7.30
2023-01-19T02:04:56.477Z,6.07
2023-01-19T02:08:00.677Z,7.27
2023-01-19T02:10:45.947Z,6.30
2023-01-19T02:13:22.550Z,5.87
2023-01-19T02:15:58.142Z,6.53
2023-01-19T02:18:28.018Z,6.70
2023-01-19T02:21:20.075Z,6.63
2023-01-19T02:23:55.222Z,6.20
2023-01-19T02:26:25.901Z,5.87
2023-01-19T02:28:59.365Z,6.90
2023-01-19T02:31:28.279Z,6.00
2023-01-19T02:33:55.794Z,6.23
2023-01-19T02:36:27.174Z,6.20
2023-01-19T02:38:57.467Z,5.90
2023-01-19T02:41:28.501Z,6.97
2023-01-19T02:43:58.230Z,6.67
2023-01-19T02:46:25.694Z,6.13
2023-01-19T02:48:52.252Z,6.20
2023-01-19T02:51:24.555Z,6.27
2023-01-19T02:54:13.829Z,5.50
2023-01-19T02:57:16.299Z,6.53
2023-01-19T03:00:12.010Z,7.70
2023-01-19T03:02:54.806Z,6.97
2023-01-19T03:05:41.436Z,8.07
2023-01-19T03:08:23.849Z,6.93
2023-01-19T03:11:06.359Z,6.90
2023-01-19T03:14:00.895Z,7.80
2023-01-19T03:16:31.407Z,6.80
2023-01-19T03:19:10.670Z,7.93
2023-01-19T03:21:39.741Z,7.60
2023-01-19T03:24:08.099Z,8.40
2023-01-19T03:26:41.846Z,7.93
2023-01-19T03:29:10.592Z,7.43
2023-01-19T03:31:38.471Z,6.40
2023-01-19T03:34:08.074Z,7.03
2023-01-19T03:36:44.556Z,7.80
2023-01-19T03:39:14.460Z,7.60
2023-01-19T03:41:42.868Z,8.03
2023-01-19T03:44:12.065Z,7.97
2023-01-19T03:46:40.174Z,7.33
2023-01-19T03:49:08.335Z,7.80
2023-01-19T03:51:37.504Z,7.53
2023-01-19T03:54:05.593Z,6.90
2023-01-19T03:56:32.179Z,9.00
2023-01-19T03:58:59.408Z,7.73
2023-01-19T04:01:26.110Z,8.20
2023-01-19T04:03:53.105Z,7.57
2023-01-19T04:06:21.150Z,8.13
2023-01-19T04:08:49.267Z,8.07
2023-01-19T04:11:16.236Z,7.70
2023-01-19T04:13:42.782Z,7.50
2023-01-19T04:16:11.130Z,8.70
2023-01-19T04:18:37.727Z,7.70
2023-01-19T04:21:06.967Z,8.27
2023-01-19T04:23:34.338Z,9.83
2023-01-19T04:26:08.789Z,8.40
2023-01-19T04:28:36.975Z,9.57
2023-01-19T04:31:07.440Z,8.07
2023-01-19T04:33:34.359Z,8.90
2023-01-19T04:36:01.624Z,8.60
2023-01-19T04:38:28.246Z,8.63
2023-01-19T04:40:55.041Z,8.57
2023-01-19T04:43:22.730Z,8.73
2023-01-19T04:45:49.730Z,9.67
2023-01-19T04:48:18.301Z,9.30
2023-01-19T04:50:44.980Z,8.83
2023-01-19T04:53:13.509Z,8.20
2023-01-19T04:55:40.161Z,8.80
2023-01-19T04:58:06.700Z,9.60
2023-01-19T05:00:33.569Z,9.10
2023-01-19T05:03:01.559Z,9.43
2023-01-19T05:05:29.600Z,9.20
2023-01-19T05:07:56.207Z,8.40
2023-01-19T05:10:23.660Z,9.43
2023-01-19T05:12:50.209Z,9.23
2023-01-19T05:15:17.203Z,9.03
2023-01-19T05:17:43.701Z,9.27
2023-01-19T05:20:12.541Z,9.10
2023-01-19T05:22:39.953Z,9.13
2023-01-19T05:25:10.832Z,9.87
2023-01-19T05:27:38.637Z,8.93
2023-01-19T05:30:06.408Z,8.73
2023-01-19T05:32:33.092Z,9.70
2023-01-19T05:35:00.228Z,8.23
2023-01-19T05:37:27.032Z,9.40
2023-01-19T05:39:53.910Z,8.70
2023-01-19T05:42:20.911Z,8.60
2023-01-19T05:44:47.434Z,8.77
2023-01-19T05:47:13.928Z,9.10
2023-01-19T05:49:40.446Z,8.83
2023-01-19T05:52:07.630Z,9.17
2023-01-19T05:54:34.396Z,8.80
2023-01-19T05:57:01.551Z,9.67
2023-01-19T05:59:28.859Z,9.53
2023-01-19T06:01:55.614Z,9.73
2023-01-19T06:04:22.269Z,9.97
2023-01-19T06:06:49.830Z,9.00
2023-01-19T06:09:17.285Z,11.03
2023-01-19T06:11:45.880Z,9.43
2023-01-19T06:14:13.059Z,10.37
2023-01-19T06:16:40.395Z,9.73
2023-01-19T06:19:07.034Z,8.63
2023-01-19T06:21:34.310Z,9.63
2023-01-19T06:24:00.985Z,9.37
2023-01-19T06:26:27.510Z,8.67
2023-01-19T06:28:54.172Z,8.80
2023-01-19T06:31:20.703Z,9.93
2023-01-19T06:33:47.415Z,9.90
2023-01-19T06:36:13.934Z,9.40
2023-01-19T06:38:40.447Z,10.10
2023-01-19T06:41:07.020Z,10.17
2023-01-19T06:43:33.532Z,10.30
2023-01-19T06:46:00.591Z,9.00
2023-01-19T06:48:27.858Z,10.47
2023-01-19T06:50:54.884Z,10.33
2023-01-19T06:53:22.472Z,9.60
2023-01-19T06:55:49.047Z,10.30
2023-01-19T06:58:16.080Z,10.70
2023-01-19T07:00:43.078Z,10.50
2023-01-19T07:03:19.682Z,9.40
2023-01-19T07:05:47.113Z,10.00
2023-01-19T07:08:15.571Z,9.90
2023-01-19T07:11:25.071Z,9.77
2023-01-19T07:13:28.718Z,9.90
2023-01-19T07:15:55.261Z,8.97
2023-01-19T07:18:21.761Z,9.00
2023-01-19T07:20:49.211Z,9.73
2023-01-19T07:23:16.568Z,10.23
2023-01-19T07:25:46.485Z,9.37
2023-01-19T07:28:16.008Z,9.30
2023-01-19T07:30:43.584Z,9.17
2023-01-19T07:33:10.438Z,8.90
2023-01-19T07:35:37.406Z,9.13
2023-01-19T07:38:04.183Z,8.77
2023-01-19T07:40:30.886Z,8.67
2023-01-19T07:42:57.371Z,8.40
2023-01-19T07:45:23.866Z,7.70
2023-01-19T07:47:51.031Z,8.50
2023-01-19T07:50:21.234Z,8.83
2023-01-19T07:52:50.615Z,8.30
2023-01-19T07:55:17.347Z,8.40
2023-01-19T07:57:44.075Z,7.67
2023-01-19T08:00:11.374Z,7.80
2023-01-19T08:02:41.644Z,7.73
2023-01-19T08:05:08.622Z,7.70
2023-01-19T08:07:35.604Z,7.53
2023-01-19T08:10:02.114Z,7.10
2023-01-19T08:12:29.414Z,7.40
2023-01-19T08:14:55.935Z,8.57
2023-01-19T08:17:22.456Z,8.47
2023-01-19T08:19:49.448Z,8.37
2023-01-19T08:22:15.960Z,7.80
2023-01-19T08:24:42.544Z,7.33
2023-01-19T08:27:12.676Z,7.90
2023-01-19T08:29:39.527Z,6.83
2023-01-19T08:32:06.710Z,7.57
2023-01-19T08:34:33.451Z,7.90
2023-01-19T08:37:00.496Z,9.27
2023-01-19T08:39:27.392Z,7.30
2023-01-19T08:41:54.304Z,7.63
2023-01-19T08:44:21.374Z,7.57
2023-01-19T08:46:48.801Z,8.57
2023-01-19T08:49:15.854Z,7.83
2023-01-19T08:51:42.394Z,8.23
2023-01-19T08:54:09.407Z,8.87
2023-01-19T08:56:36.684Z,8.43
2023-01-19T08:59:09.496Z,8.77
2023-01-19T09:01:37.196Z,8.17
2023-01-19T09:04:04.043Z,7.90
2023-01-19T09:06:30.616Z,9.40
2023-01-19T09:08:57.648Z,8.47
2023-01-19T09:11:24.140Z,9.30
2023-01-19T09:13:50.797Z,8.40
2023-01-19T09:16:17.491Z,10.00
2023-01-19T09:18:45.806Z,8.60
2023-01-19T09:21:13.752Z,8.77
2023-01-19T09:23:40.409Z,7.70
2023-01-19T09:26:07.053Z,7.87
2023-01-19T09:28:33.721Z,7.60
2023-01-19T09:31:04.970Z,7.80
2023-01-19T09:33:31.627Z,7.97
2023-01-19T09:35:58.162Z,7.30
2023-01-19T09:38:25.794Z,8.37
2023-01-19T09:40:59.214Z,9.20
2023-01-19T09:43:47.739Z,7.97
2023-01-19T09:46:41.306Z,7.00
2023-01-19T09:49:18.295Z,7.40
2023-01-19T09:51:48.576Z,7.47
2023-01-19T09:54:18.180Z,7.50
2023-01-19T09:56:45.973Z,7.07
2023-01-19T09:59:27.903Z,7.57
2023-01-19T10:02:06.013Z,6.40
2023-01-19T10:04:40.933Z,7.60
2023-01-19T10:07:16.154Z,6.30
2023-01-19T10:09:57.138Z,6.50
2023-01-19T10:12:43.422Z,7.00
2023-01-19T10:15:23.029Z,7.77
2023-01-19T10:18:10.494Z,8.50
2023-01-19T10:20:42.462Z,7.20
2023-01-19T10:23:22.166Z,7.70
2023-01-19T10:25:49.349Z,7.47
2023-01-19T10:28:22.167Z,7.80
2023-01-19T10:30:48.794Z,7.30
2023-01-19T10:33:16.377Z,9.13
2023-01-19T10:35:45.190Z,8.40
2023-01-19T10:38:14.831Z,8.47
2023-01-19T10:40:54.966Z,8.47
2023-01-19T10:43:41.808Z,7.83
2023-01-19T10:46:20.021Z,8.60
2023-01-19T10:48:50.628Z,8.30
2023-01-19T10:51:17.570Z,7.83
2023-01-19T10:53:54.439Z,9.20
2023-01-19T10:56:24.661Z,8.13
2023-01-19T10:58:51.854Z,8.90
2023-01-19T11:01:27.476Z,8.10
2023-01-19T11:03:56.946Z,8.03
2023-01-19T11:06:29.893Z,9.17
2023-01-19T11:09:14.035Z,8.30
2023-01-19T11:11:47.682Z,8.63
2023-01-19T11:14:19.494Z,7.60
2023-01-19T11:16:49.699Z,7.57
2023-01-19T11:19:29.314Z,8.77
2023-01-19T11:22:22.716Z,8.40
2023-01-19T11:24:50.256Z,9.07
2023-01-19T11:27:19.494Z,8.00
2023-01-19T11:29:56.905Z,7.70
2023-01-19T11:32:27.044Z,7.93
2023-01-19T11:34:53.679Z,8.00
2023-01-19T11:37:20.511Z,7.97
2023-01-19T11:39:49.779Z,8.23
2023-01-19T11:42:18.664Z,7.80
2023-01-19T11:45:13.977Z,8.30
2023-01-19T11:47:47.841Z,7.97
2023-01-19T11:50:23.466Z,7.30
2023-01-19T11:53:05.861Z,8.00
2023-01-19T11:55:52.372Z,8.17
2023-01-19T11:58:19.938Z,8.40
2023-01-19T12:00:52.822Z,7.17
2023-01-19T12:03:31.855Z,8.43
2023-01-19T12:06:06.878Z,7.50
2023-01-19T12:08:40.824Z,7.23
2023-01-19T12:11:16.658Z,7.13
2023-01-19T12:13:45.523Z,7.60
2023-01-19T12:16:24.423Z,7.43
2023-01-19T12:19:24.932Z,7.20
2023-01-19T12:21:52.664Z,6.20
2023-01-19T12:24:28.936Z,5.80
2023-01-19T12:27:02.483Z,6.53
2023-01-19T12:29:33.298Z,9.23
2023-01-19T12:32:16.639Z,8.77
2023-01-19T12:34:47.805Z,7.10
2023-01-19T12:37:42.903Z,7.00
2023-01-19T12:40:24.127Z,7.10
2023-01-19T12:43:00.693Z,6.40
2023-01-19T12:45:35.269Z,7.17
2023-01-19T12:48:03.657Z,7.40
2023-01-19T12:50:37.575Z,7.83
2023-01-19T12:53:15.741Z,6.90
2023-01-19T12:56:08.558Z,6.80
2023-01-19T12:58:35.694Z,7.10
2023-01-19T13:01:14.989Z,8.67
2023-01-19T13:03:57.945Z,7.27
2023-01-19T13:07:08.350Z,7.20
2023-01-19T13:09:37.865Z,6.63
2023-01-19T13:12:14.051Z,5.93
2023-01-19T13:14:43.180Z,7.30
2023-01-19T13:17:23.027Z,6.93
2023-01-19T13:19:54.820Z,7.10
2023-01-19T13:22:46.158Z,7.00
2023-01-19T13:25:21.677Z,7.00
2023-01-19T13:27:49.905Z,6.80
2023-01-19T13:30:19.274Z,6.50
2023-01-19T13:32:46.707Z,6.73
2023-01-19T13:35:17.642Z,7.47
2023-01-19T13:37:45.310Z,7.03
2023-01-19T13:40:19.526Z,7.53
2023-01-19T13:42:48.063Z,7.40
2023-01-19T13:45:24.680Z,6.83
2023-01-19T13:47:52.963Z,6.37
2023-01-19T13:50:26.834Z,5.77
2023-01-19T13:52:55.795Z,7.03
2023-01-19T13:55:23.717Z,5.90
2023-01-19T13:57:51.698Z,7.20
2023-01-19T14:00:21.531Z,6.30
2023-01-19T14:02:55.455Z,6.47
2023-01-19T14:05:30.753Z,6.97
2023-01-19T14:08:01.105Z,6.17
2023-01-19T14:10:28.622Z,6.40
2023-01-19T14:13:04.121Z,5.70
2023-01-19T14:15:34.823Z,5.70
2023-01-19T14:18:18.856Z,5.20
2023-01-19T14:20:52.489Z,5.40
2023-01-19T14:23:38.089Z,6.00
2023-01-19T14:26:04.897Z,6.13
2023-01-19T14:28:39.494Z,6.40
2023-01-19T14:31:27.969Z,6.10
2023-01-19T14:33:55.685Z,5.80
2023-01-19T14:36:39.098Z,5.37
2023-01-19T14:39:13.894Z,5.20
2023-01-19T14:41:49.572Z,5.10
2023-01-19T14:44:27.568Z,4.90
2023-01-19T14:46:54.515Z,4.60
2023-01-19T14:49:30.180Z,4.70
2023-01-19T14:51:57.449Z,5.00
2023-01-19T14:54:31.301Z,4.80
2023-01-19T14:56:57.946Z,4.20
2023-01-19T14:59:24.481Z,4.53
2023-01-19T15:01:51.140Z,4.50
2023-01-19T15:04:17.746Z,5.03
2023-01-19T15:06:45.783Z,5.00
2023-01-19T15:09:13.477Z,4.93
2023-01-19T15:11:41.392Z,5.73
2023-01-19T15:14:13.552Z,4.87
2023-01-19T15:16:40.307Z,4.87
2023-01-19T15:19:10.992Z,4.90
2023-01-19T15:21:41.804Z,5.80
2023-01-19T15:24:11.078Z,4.87
2023-01-19T15:26:39.436Z,4.87
2023-01-19T15:29:25.289Z,4.13
2023-01-19T15:31:52.683Z,4.53
2023-01-19T15:34:20.272Z,6.20
2023-01-19T15:36:47.555Z,3.83
2023-01-19T15:39:14.102Z,2.87
2023-01-19T15:41:40.815Z,2.30
2023-01-19T15:44:11.193Z,2.27
2023-01-19T15:46:38.053Z,2.37
2023-01-19T15:49:05.852Z,2.70
2023-01-19T15:51:32.825Z,2.40
2023-01-19T15:53:59.362Z,3.00
2023-01-19T15:56:28.666Z,2.60
2023-01-19T15:58:56.895Z,3.10
2023-01-19T16:01:31.205Z,2.63
2023-01-19T16:04:00.333Z,2.60
2023-01-19T16:06:27.519Z,3.40
2023-01-19T16:08:59.097Z,5.13
2023-01-19T16:11:26.480Z,3.30
2023-01-19T16:13:52.999Z,3.63
2023-01-19T16:16:23.278Z,4.00
2023-01-19T16:18:50.152Z,4.17
2023-01-19T16:21:17.532Z,3.80
2023-01-19T16:23:44.060Z,2.70
2023-01-19T16:26:34.818Z,2.77
2023-01-19T16:29:08.495Z,2.80
2023-01-19T16:31:36.587Z,3.43
2023-01-19T16:34:03.438Z,4.97
2023-01-19T16:36:32.139Z,5.47
2023-01-19T16:39:10.359Z,4.60
2023-01-19T16:41:36.960Z,10.97
2023-01-19T16:44:04.783Z,7.90
2023-01-19T16:46:35.445Z,3.20
2023-01-19T16:49:07.479Z,3.07
2023-01-19T16:51:34.040Z,4.03
2023-01-19T16:54:00.890Z,4.17
2023-01-19T16:56:27.469Z,2.50
2023-01-19T16:58:55.151Z,2.27
2023-01-19T17:01:22.278Z,2.23
2023-01-19T17:03:49.262Z,1.73
2023-01-19T17:06:18.466Z,2.57
2023-01-19T17:08:45.051Z,2.77
2023-01-19T17:11:20.848Z,2.63
2023-01-19T17:14:08.394Z,2.97
2023-01-19T17:16:35.863Z,3.13
2023-01-19T17:19:05.518Z,2.87
2023-01-19T17:21:32.670Z,3.43
2023-01-19T17:23:59.355Z,4.07
2023-01-19T17:26:31.143Z,3.00
2023-01-19T17:29:02.263Z,3.83
2023-01-19T17:31:30.375Z,3.13
2023-01-19T17:33:58.725Z,2.93
2023-01-19T17:36:27.502Z,2.70
2023-01-19T17:38:56.624Z,3.37
2023-01-19T17:41:26.136Z,3.37
2023-01-19T17:43:53.188Z,3.10
2023-01-19T17:46:22.576Z,2.80
2023-01-19T17:48:57.109Z,2.57
2023-01-19T17:51:25.351Z,3.07
2023-01-19T17:53:52.690Z,3.20
2023-01-19T17:56:21.875Z,3.53
2023-01-19T17:58:49.288Z,2.90
2023-01-19T18:01:17.506Z,3.60
2023-01-19T18:03:44.638Z,3.60
2023-01-19T18:06:11.323Z,3.80
2023-01-19T18:08:39.400Z,3.80
2023-01-19T18:11:06.781Z,2.70
2023-01-19T18:13:33.720Z,2.77
2023-01-19T18:16:08.798Z,2.80
2023-01-19T18:18:35.955Z,3.17
2023-01-19T18:21:05.981Z,3.30
2023-01-19T18:23:32.822Z,4.00
2023-01-19T18:26:00.029Z,2.80
2023-01-19T18:28:26.928Z,2.60
2023-01-19T18:30:53.548Z,2.70
2023-01-19T18:33:20.484Z,4.20
2023-01-19T18:35:47.656Z,3.50
2023-01-19T18:38:15.013Z,3.80
2023-01-19T18:40:41.605Z,4.20
2023-01-19T18:43:09.579Z,4.00
2023-01-19T18:45:38.054Z,4.77
2023-01-19T18:48:04.920Z,4.77
2023-01-19T18:50:32.110Z,6.20
2023-01-19T18:52:59.143Z,6.37
2023-01-19T18:55:26.128Z,6.70
2023-01-19T18:57:53.322Z,6.07
2023-01-19T19:00:20.206Z,6.57
2023-01-19T19:02:46.723Z,8.10
2023-01-19T19:05:13.538Z,6.83
2023-01-19T19:07:40.032Z,6.60
2023-01-19T19:10:07.007Z,7.40
2023-01-19T19:12:33.756Z,8.27
2023-01-19T19:15:03.362Z,8.30
2023-01-19T19:17:29.850Z,9.00
2023-01-19T19:19:56.378Z,9.53
2023-01-19T19:22:25.459Z,9.70
2023-01-19T19:24:52.342Z,9.67
2023-01-19T19:27:18.885Z,10.73
2023-01-19T19:29:48.845Z,10.90
2023-01-19T19:32:20.391Z,10.90
2023-01-19T19:34:53.084Z,10.70
2023-01-19T19:37:20.176Z,10.67
2023-01-19T19:39:48.106Z,12.23
2023-01-19T19:42:15.438Z,12.40
2023-01-19T19:44:41.937Z,12.20
2023-01-19T19:47:08.557Z,12.30
2023-01-19T19:49:35.053Z,13.13
2023-01-19T19:52:01.616Z,15.23
2023-01-19T19:54:28.141Z,14.70
2023-01-19T19:56:54.617Z,15.63
2023-01-19T19:59:21.111Z,13.80
2023-01-19T20:01:49.728Z,16.10
2023-01-19T20:04:19.945Z,15.37
2023-01-19T20:06:48.252Z,14.30
2023-01-19T20:09:16.635Z,15.17
2023-01-19T20:11:46.488Z,15.83
2023-01-19T20:14:15.989Z,15.33
2023-01-19T20:16:42.742Z,16.40
2023-01-19T20:19:10.094Z,16.00
2023-01-19T20:21:38.451Z,16.30
2023-01-19T20:24:13.156Z,16.60
2023-01-19T20:26:42.628Z,16.70
2023-01-19T20:29:24.510Z,16.80
2023-01-19T20:31:53.917Z,16.93
2023-01-19T20:34:25.004Z,15.70
2023-01-19T20:36:53.679Z,16.17
2023-01-19T20:39:21.621Z,17.40
2023-01-19T20:41:50.847Z,18.27
2023-01-19T20:44:23.326Z,18.10
2023-01-19T20:46:50.144Z,19.23
2023-01-19T20:49:16.776Z,19.50
2023-01-19T20:51:45.463Z,17.83
2023-01-19T20:54:14.841Z,17.90
2023-01-19T20:56:41.802Z,17.60
2023-01-19T20:59:09.706Z,17.40
2023-01-19T21:01:36.326Z,17.50
2023-01-19T21:04:03.544Z,18.97
2023-01-19T21:06:30.036Z,18.30
2023-01-19T21:08:57.519Z,18.87
2023-01-19T21:11:24.667Z,19.00
2023-01-19T21:13:55.386Z,18.80
2023-01-19T21:16:26.588Z,19.67
2023-01-19T21:18:53.735Z,18.60
2023-01-19T21:21:29.871Z,18.50
2023-01-19T21:24:01.589Z,18.50
2023-01-19T21:26:33.562Z,17.70
2023-01-19T21:29:02.001Z,18.13
2023-01-19T21:31:28.791Z,19.23
2023-01-19T21:33:58.666Z,19.70
2023-01-19T21:36:25.905Z,18.63
2023-01-19T21:38:55.781Z,18.70
2023-01-19T21:41:22.696Z,19.07
2023-01-19T21:43:49.235Z,18.80
2023-01-19T21:46:29.290Z,18.27
2023-01-19T21:49:04.722Z,19.67
2023-01-19T21:51:33.743Z,18.27
2023-01-19T21:54:01.853Z,19.03
2023-01-19T21:56:29.744Z,19.03
2023-01-19T21:58:57.770Z,19.37
2023-01-19T22:01:25.009Z,18.70
2023-01-19T22:03:56.569Z,18.30
2023-01-19T22:06:24.740Z,19.13
2023-01-19T22:08:51.397Z,20.23
2023-01-19T22:11:19.709Z,20.10
2023-01-19T22:13:46.474Z,18.23
2023-01-19T22:16:15.375Z,20.20
2023-01-19T22:18:49.487Z,20.23
2023-01-19T22:21:18.398Z,22.03
2023-01-19T22:23:51.715Z,20.47
2023-01-19T22:26:18.876Z,19.70
2023-01-19T22:28:45.753Z,19.50
2023-01-19T22:31:14.552Z,19.70
2023-01-19T22:33:42.595Z,19.03
2023-01-19T22:36:23.739Z,21.50
2023-01-19T22:38:56.014Z,21.37
2023-01-19T22:41:25.133Z,20.37
2023-01-19T22:43:53.874Z,20.80
2023-01-19T22:46:22.250Z,20.87
2023-01-19T22:48:49.805Z,21.40
2023-01-19T22:51:17.823Z,20.93
2023-01-19T22:53:44.774Z,22.80
2023-01-19T22:56:19.831Z,21.70
2023-01-19T22:58:47.027Z,21.50
2023-01-19T23:01:19.277Z,20.70
2023-01-19T23:03:46.607Z,20.73
2023-01-19T23:06:15.955Z,22.40
2023-01-19T23:08:42.936Z,21.10
2023-01-19T23:11:12.702Z,22.40
2023-01-19T23:13:39.354Z,23.97
2023-01-19T23:16:07.075Z,23.03
2023-01-19T23:18:33.825Z,21.60
2023-01-19T23:21:04.736Z,22.20
2023-01-19T23:23:31.891Z,22.17
2023-01-19T23:26:18.659Z,21.77
2023-01-19T23:28:46.576Z,22.67
2023-01-19T23:31:14.181Z,22.80
2023-01-19T23:33:41.561Z,22.50
2023-01-19T23:36:08.508Z,23.40
2023-01-19T23:38:35.008Z,22.73
2023-01-19T23:41:01.514Z,21.57
2023-01-19T23:43:28.036Z,23.47
2023-01-19T23:45:54.893Z,22.50
2023-01-19T23:48:21.452Z,22.37
2023-01-19T23:50:47.938Z,22.67
2023-01-19T23:53:14.879Z,22.40
2023-01-19T23:55:41.931Z,21.57
2023-01-19T23:58:08.447Z,21.70
